sensor_id;sensor_type;location;lat;lon;timestamp;temperature;humidity
77052;SHT30;65980;44.898;8.602;2023-12-04T00:00:36;1.71;81.03
77052;SHT30;65980;44.898;8.602;2023-12-04T00:03:41;1.72;79.06
77052;SHT30;65980;44.898;8.602;2023-12-04T00:06:45;1.64;79.76
77052;SHT30;65980;44.898;8.602;2023-12-04T00:09:50;1.52;81.30
77052;SHT30;65980;44.898;8.602;2023-12-04T00:12:55;1.15;82.80
77052;SHT30;65980;44.898;8.602;2023-12-04T00:16:01;0.97;83.78
77052;SHT30;65980;44.898;8.602;2023-12-04T00:19:05;0.91;83.30
77052;SHT30;65980;44.898;8.602;2023-12-04T00:22:10;0.92;83.81
77052;SHT30;65980;44.898;8.602;2023-12-04T00:25:15;1.02;84.11
77052;SHT30;65980;44.898;8.602;2023-12-04T00:28:19;1.19;83.29
77052;SHT30;65980;44.898;8.602;2023-12-04T00:31:23;1.33;82.41
77052;SHT30;65980;44.898;8.602;2023-12-04T00:34:27;1.26;82.51
77052;SHT30;65980;44.898;8.602;2023-12-04T00:37:31;1.07;81.97
77052;SHT30;65980;44.898;8.602;2023-12-04T00:40:35;1.09;82.22
77052;SHT30;65980;44.898;8.602;2023-12-04T00:43:40;0.95;83.12
77052;SHT30;65980;44.898;8.602;2023-12-04T00:46:45;1.13;83.22
77052;SHT30;65980;44.898;8.602;2023-12-04T00:49:49;0.99;83.86
77052;SHT30;65980;44.898;8.602;2023-12-04T00:52:53;1.06;83.90
77052;SHT30;65980;44.898;8.602;2023-12-04T00:55:57;0.93;84.88
77052;SHT30;65980;44.898;8.602;2023-12-04T00:59:01;1.00;84.46
77052;SHT30;65980;44.898;8.602;2023-12-04T01:02:08;0.75;85.57
77052;SHT30;65980;44.898;8.602;2023-12-04T01:05:12;0.51;86.37
77052;SHT30;65980;44.898;8.602;2023-12-04T01:08:16;0.43;86.72
77052;SHT30;65980;44.898;8.602;2023-12-04T01:11:22;0.50;86.63
77052;SHT30;65980;44.898;8.602;2023-12-04T01:14:27;0.44;87.17
77052;SHT30;65980;44.898;8.602;2023-12-04T01:17:32;0.39;87.57
77052;SHT30;65980;44.898;8.602;2023-12-04T01:20:36;0.46;87.89
77052;SHT30;65980;44.898;8.602;2023-12-04T01:23:39;0.40;87.96
77052;SHT30;65980;44.898;8.602;2023-12-04T01:26:44;0.41;87.36
77052;SHT30;65980;44.898;8.602;2023-12-04T01:29:48;0.41;87.46
77052;SHT30;65980;44.898;8.602;2023-12-04T01:32:52;0.39;87.28
77052;SHT30;65980;44.898;8.602;2023-12-04T01:35:57;0.26;87.74
77052;SHT30;65980;44.898;8.602;2023-12-04T01:39:01;0.14;87.80
77052;SHT30;65980;44.898;8.602;2023-12-04T01:42:06;0.12;88.09
77052;SHT30;65980;44.898;8.602;2023-12-04T01:45:11;0.19;87.76
77052;SHT30;65980;44.898;8.602;2023-12-04T01:48:15;0.19;87.66
77052;SHT30;65980;44.898;8.602;2023-12-04T01:51:21;0.17;87.50
77052;SHT30;65980;44.898;8.602;2023-12-04T01:54:28;0.30;87.51
77052;SHT30;65980;44.898;8.602;2023-12-04T01:57:35;0.51;85.40
77052;SHT30;65980;44.898;8.602;2023-12-04T02:00:39;0.09;87.15
77052;SHT30;65980;44.898;8.602;2023-12-04T02:03:42;-0.08;87.73
77052;SHT30;65980;44.898;8.602;2023-12-04T02:06:47;-0.06;87.74
77052;SHT30;65980;44.898;8.602;2023-12-04T02:09:51;-0.05;87.61
77052;SHT30;65980;44.898;8.602;2023-12-04T02:12:56;0.01;87.77
77052;SHT30;65980;44.898;8.602;2023-12-04T02:16:03;-0.01;87.69
77052;SHT30;65980;44.898;8.602;2023-12-04T02:19:12;-0.01;87.70
77052;SHT30;65980;44.898;8.602;2023-12-04T02:22:17;0.02;88.20
77052;SHT30;65980;44.898;8.602;2023-12-04T02:25:24;0.10;87.54
77052;SHT30;65980;44.898;8.602;2023-12-04T02:28:32;0.24;86.55
77052;SHT30;65980;44.898;8.602;2023-12-04T02:31:39;0.31;86.41
77052;SHT30;65980;44.898;8.602;2023-12-04T02:34:44;0.26;86.26
77052;SHT30;65980;44.898;8.602;2023-12-04T02:37:50;0.41;86.87
77052;SHT30;65980;44.898;8.602;2023-12-04T02:40:55;0.67;85.03
77052;SHT30;65980;44.898;8.602;2023-12-04T02:43:59;0.89;85.04
77052;SHT30;65980;44.898;8.602;2023-12-04T02:47:04;1.23;83.85
77052;SHT30;65980;44.898;8.602;2023-12-04T02:50:07;1.34;82.63
77052;SHT30;65980;44.898;8.602;2023-12-04T02:53:12;1.16;81.72
77052;SHT30;65980;44.898;8.602;2023-12-04T02:56:16;0.84;82.26
77052;SHT30;65980;44.898;8.602;2023-12-04T02:59:21;0.46;84.00
77052;SHT30;65980;44.898;8.602;2023-12-04T03:02:26;0.33;84.66
77052;SHT30;65980;44.898;8.602;2023-12-04T03:05:31;0.36;84.31
77052;SHT30;65980;44.898;8.602;2023-12-04T03:08:36;0.33;84.57
77052;SHT30;65980;44.898;8.602;2023-12-04T03:11:41;0.34;84.83
77052;SHT30;65980;44.898;8.602;2023-12-04T03:14:46;0.51;84.89
77052;SHT30;65980;44.898;8.602;2023-12-04T03:17:52;0.75;83.57
77052;SHT30;65980;44.898;8.602;2023-12-04T03:20:56;0.81;83.23
77052;SHT30;65980;44.898;8.602;2023-12-04T03:24:01;0.86;82.77
77052;SHT30;65980;44.898;8.602;2023-12-04T03:27:06;0.91;83.32
77052;SHT30;65980;44.898;8.602;2023-12-04T03:30:11;1.15;82.84
77052;SHT30;65980;44.898;8.602;2023-12-04T03:33:15;1.19;83.82
77052;SHT30;65980;44.898;8.602;2023-12-04T03:36:20;1.43;81.91
77052;SHT30;65980;44.898;8.602;2023-12-04T03:39:25;1.26;81.74
77052;SHT30;65980;44.898;8.602;2023-12-04T03:42:29;0.99;82.86
77052;SHT30;65980;44.898;8.602;2023-12-04T03:45:32;0.75;84.68
77052;SHT30;65980;44.898;8.602;2023-12-04T03:48:39;0.67;85.34
77052;SHT30;65980;44.898;8.602;2023-12-04T03:51:44;0.95;84.79
77052;SHT30;65980;44.898;8.602;2023-12-04T03:54:49;0.91;83.90
77052;SHT30;65980;44.898;8.602;2023-12-04T03:57:56;0.91;83.54
77052;SHT30;65980;44.898;8.602;2023-12-04T04:01:01;0.78;84.12
77052;SHT30;65980;44.898;8.602;2023-12-04T04:04:04;0.97;83.63
77052;SHT30;65980;44.898;8.602;2023-12-04T04:07:08;1.05;82.81
77052;SHT30;65980;44.898;8.602;2023-12-04T04:10:12;0.93;83.97
77052;SHT30;65980;44.898;8.602;2023-12-04T04:13:16;0.68;84.83
77052;SHT30;65980;44.898;8.602;2023-12-04T04:16:21;0.64;85.72
77052;SHT30;65980;44.898;8.602;2023-12-04T04:19:24;0.54;85.78
77052;SHT30;65980;44.898;8.602;2023-12-04T04:22:28;0.53;85.72
77052;SHT30;65980;44.898;8.602;2023-12-04T04:25:33;0.47;87.04
77052;SHT30;65980;44.898;8.602;2023-12-04T04:28:36;0.50;86.76
77052;SHT30;65980;44.898;8.602;2023-12-04T04:31:40;0.58;86.15
77052;SHT30;65980;44.898;8.602;2023-12-04T04:34:44;0.61;85.95
77052;SHT30;65980;44.898;8.602;2023-12-04T04:37:49;0.53;86.11
77052;SHT30;65980;44.898;8.602;2023-12-04T04:40:53;0.53;86.16
77052;SHT30;65980;44.898;8.602;2023-12-04T04:43:57;0.50;85.98
77052;SHT30;65980;44.898;8.602;2023-12-04T04:47:01;0.44;86.30
77052;SHT30;65980;44.898;8.602;2023-12-04T04:50:06;0.33;86.82
77052;SHT30;65980;44.898;8.602;2023-12-04T04:53:11;0.34;86.86
77052;SHT30;65980;44.898;8.602;2023-12-04T04:56:15;0.40;86.64
77052;SHT30;65980;44.898;8.602;2023-12-04T04:59:19;0.50;86.85
77052;SHT30;65980;44.898;8.602;2023-12-04T05:02:23;0.48;86.68
77052;SHT30;65980;44.898;8.602;2023-12-04T05:05:28;0.51;86.75
77052;SHT30;65980;44.898;8.602;2023-12-04T05:08:31;0.50;86.42
77052;SHT30;65980;44.898;8.602;2023-12-04T05:11:36;0.56;86.47
77052;SHT30;65980;44.898;8.602;2023-12-04T05:14:40;0.76;86.67
77052;SHT30;65980;44.898;8.602;2023-12-04T05:17:44;0.62;85.95
77052;SHT30;65980;44.898;8.602;2023-12-04T05:20:48;0.78;86.26
77052;SHT30;65980;44.898;8.602;2023-12-04T05:23:53;0.81;85.98
77052;SHT30;65980;44.898;8.602;2023-12-04T05:26:58;0.97;85.70
77052;SHT30;65980;44.898;8.602;2023-12-04T05:30:03;1.03;84.70
77052;SHT30;65980;44.898;8.602;2023-12-04T05:33:07;1.06;84.20
77052;SHT30;65980;44.898;8.602;2023-12-04T05:36:12;1.24;83.94
77052;SHT30;65980;44.898;8.602;2023-12-04T05:39:16;1.37;83.07
77052;SHT30;65980;44.898;8.602;2023-12-04T05:42:20;1.19;83.81
77052;SHT30;65980;44.898;8.602;2023-12-04T05:45:25;1.06;84.69
77052;SHT30;65980;44.898;8.602;2023-12-04T05:48:30;1.34;84.27
77052;SHT30;65980;44.898;8.602;2023-12-04T05:51:34;1.44;84.07
77052;SHT30;65980;44.898;8.602;2023-12-04T05:54:39;1.58;83.86
77052;SHT30;65980;44.898;8.602;2023-12-04T05:57:44;1.62;82.73
77052;SHT30;65980;44.898;8.602;2023-12-04T06:00:48;1.61;83.89
77052;SHT30;65980;44.898;8.602;2023-12-04T06:03:53;1.83;82.69
77052;SHT30;65980;44.898;8.602;2023-12-04T06:06:56;1.75;81.82
77052;SHT30;65980;44.898;8.602;2023-12-04T06:10:01;1.40;83.53
77052;SHT30;65980;44.898;8.602;2023-12-04T06:13:06;1.26;83.99
77052;SHT30;65980;44.898;8.602;2023-12-04T06:16:10;1.07;84.79
77052;SHT30;65980;44.898;8.602;2023-12-04T06:19:16;1.06;85.21
77052;SHT30;65980;44.898;8.602;2023-12-04T06:22:21;1.27;84.68
77052;SHT30;65980;44.898;8.602;2023-12-04T06:25:26;1.22;84.27
77052;SHT30;65980;44.898;8.602;2023-12-04T06:28:31;1.29;84.29
77052;SHT30;65980;44.898;8.602;2023-12-04T06:31:36;1.23;84.63
77052;SHT30;65980;44.898;8.602;2023-12-04T06:34:44;1.19;84.51
77052;SHT30;65980;44.898;8.602;2023-12-04T06:37:49;1.37;83.64
77052;SHT30;65980;44.898;8.602;2023-12-04T06:40:58;1.44;83.46
77052;SHT30;65980;44.898;8.602;2023-12-04T06:44:03;1.75;82.81
77052;SHT30;65980;44.898;8.602;2023-12-04T06:47:08;1.50;82.53
77052;SHT30;65980;44.898;8.602;2023-12-04T06:50:13;1.26;83.87
77052;SHT30;65980;44.898;8.602;2023-12-04T06:53:28;1.26;83.82
77052;SHT30;65980;44.898;8.602;2023-12-04T06:56:32;1.16;84.23
77052;SHT30;65980;44.898;8.602;2023-12-04T07:00:04;1.17;84.17
77052;SHT30;65980;44.898;8.602;2023-12-04T07:03:31;1.26;83.86
77052;SHT30;65980;44.898;8.602;2023-12-04T07:06:39;1.27;83.98
77052;SHT30;65980;44.898;8.602;2023-12-04T07:09:46;1.15;84.40
77052;SHT30;65980;44.898;8.602;2023-12-04T07:12:59;1.07;84.88
77052;SHT30;65980;44.898;8.602;2023-12-04T07:16:10;1.02;85.05
77052;SHT30;65980;44.898;8.602;2023-12-04T07:19:19;1.05;84.99
77052;SHT30;65980;44.898;8.602;2023-12-04T07:22:36;0.93;85.31
77052;SHT30;65980;44.898;8.602;2023-12-04T07:25:42;1.12;85.14
77052;SHT30;65980;44.898;8.602;2023-12-04T07:28:46;1.40;83.91
77052;SHT30;65980;44.898;8.602;2023-12-04T07:31:51;1.51;83.53
77052;SHT30;65980;44.898;8.602;2023-12-04T07:34:55;1.62;82.73
77052;SHT30;65980;44.898;8.602;2023-12-04T07:38:03;1.39;83.34
77052;SHT30;65980;44.898;8.602;2023-12-04T07:41:30;1.26;83.24
77052;SHT30;65980;44.898;8.602;2023-12-04T07:44:38;1.26;83.50
77052;SHT30;65980;44.898;8.602;2023-12-04T07:47:43;1.22;83.61
77052;SHT30;65980;44.898;8.602;2023-12-04T07:50:47;1.44;83.67
77052;SHT30;65980;44.898;8.602;2023-12-04T07:53:51;1.51;83.37
77052;SHT30;65980;44.898;8.602;2023-12-04T07:56:57;1.72;83.39
77052;SHT30;65980;44.898;8.602;2023-12-04T08:00:11;1.72;81.99
77052;SHT30;65980;44.898;8.602;2023-12-04T08:03:26;1.64;83.23
77052;SHT30;65980;44.898;8.602;2023-12-04T08:06:30;1.50;83.75
77052;SHT30;65980;44.898;8.602;2023-12-04T08:09:35;1.52;83.57
77052;SHT30;65980;44.898;8.602;2023-12-04T08:12:39;1.71;82.96
77052;SHT30;65980;44.898;8.602;2023-12-04T08:15:43;1.81;82.77
77052;SHT30;65980;44.898;8.602;2023-12-04T08:22:42;1.74;83.09
77052;SHT30;65980;44.898;8.602;2023-12-04T08:25:48;1.47;85.17
77052;SHT30;65980;44.898;8.602;2023-12-04T08:28:59;1.55;84.72
77052;SHT30;65980;44.898;8.602;2023-12-04T08:32:12;1.85;84.29
77052;SHT30;65980;44.898;8.602;2023-12-04T08:35:16;2.10;83.03
77052;SHT30;65980;44.898;8.602;2023-12-04T08:38:21;2.40;81.96
77052;SHT30;65980;44.898;8.602;2023-12-04T08:41:26;2.55;81.63
77052;SHT30;65980;44.898;8.602;2023-12-04T08:44:34;2.71;79.60
77052;SHT30;65980;44.898;8.602;2023-12-04T08:47:38;2.81;79.86
77052;SHT30;65980;44.898;8.602;2023-12-04T08:50:44;2.89;79.59
77052;SHT30;65980;44.898;8.602;2023-12-04T08:53:49;2.96;79.37
77052;SHT30;65980;44.898;8.602;2023-12-04T08:56:54;2.78;80.07
77052;SHT30;65980;44.898;8.602;2023-12-04T08:59:59;2.79;79.47
77052;SHT30;65980;44.898;8.602;2023-12-04T09:03:04;2.75;78.67
77052;SHT30;65980;44.898;8.602;2023-12-04T09:06:09;2.85;78.78
77052;SHT30;65980;44.898;8.602;2023-12-04T09:09:14;2.92;78.41
77052;SHT30;65980;44.898;8.602;2023-12-04T09:12:20;2.82;77.44
77052;SHT30;65980;44.898;8.602;2023-12-04T09:15:25;2.61;79.03
77052;SHT30;65980;44.898;8.602;2023-12-04T09:18:29;2.44;80.18
77052;SHT30;65980;44.898;8.602;2023-12-04T09:21:35;2.36;80.91
77052;SHT30;65980;44.898;8.602;2023-12-04T09:24:39;2.37;81.05
77052;SHT30;65980;44.898;8.602;2023-12-04T09:27:47;2.55;80.04
77052;SHT30;65980;44.898;8.602;2023-12-04T09:30:52;2.62;79.62
77052;SHT30;65980;44.898;8.602;2023-12-04T09:33:59;2.61;79.89
77052;SHT30;65980;44.898;8.602;2023-12-04T09:37:03;2.51;79.74
77052;SHT30;65980;44.898;8.602;2023-12-04T09:40:08;2.07;81.55
77052;SHT30;65980;44.898;8.602;2023-12-04T09:43:14;2.14;82.09
77052;SHT30;65980;44.898;8.602;2023-12-04T09:46:19;2.17;82.25
77052;SHT30;65980;44.898;8.602;2023-12-04T09:49:25;1.99;82.70
77052;SHT30;65980;44.898;8.602;2023-12-04T09:52:31;1.98;83.18
77052;SHT30;65980;44.898;8.602;2023-12-04T09:55:40;2.33;82.95
77052;SHT30;65980;44.898;8.602;2023-12-04T09:58:45;2.55;81.69
77052;SHT30;65980;44.898;8.602;2023-12-04T10:01:51;2.48;81.16
77052;SHT30;65980;44.898;8.602;2023-12-04T10:04:56;2.74;80.93
77052;SHT30;65980;44.898;8.602;2023-12-04T10:08:01;2.81;80.01
77052;SHT30;65980;44.898;8.602;2023-12-04T10:11:06;2.93;79.71
77052;SHT30;65980;44.898;8.602;2023-12-04T10:14:16;2.74;79.91
77052;SHT30;65980;44.898;8.602;2023-12-04T10:17:23;2.62;81.64
77052;SHT30;65980;44.898;8.602;2023-12-04T10:20:28;2.64;81.86
77052;SHT30;65980;44.898;8.602;2023-12-04T10:24:04;2.78;81.52
77052;SHT30;65980;44.898;8.602;2023-12-04T10:27:16;2.54;82.49
77052;SHT30;65980;44.898;8.602;2023-12-04T10:30:33;2.55;82.22
77052;SHT30;65980;44.898;8.602;2023-12-04T10:33:40;2.76;82.01
77052;SHT30;65980;44.898;8.602;2023-12-04T10:36:46;2.66;81.39
77052;SHT30;65980;44.898;8.602;2023-12-04T10:40:07;2.59;81.57
77052;SHT30;65980;44.898;8.602;2023-12-04T10:43:30;2.64;81.65
77052;SHT30;65980;44.898;8.602;2023-12-04T10:46:36;2.38;81.68
77052;SHT30;65980;44.898;8.602;2023-12-04T10:49:42;2.41;82.44
77052;SHT30;65980;44.898;8.602;2023-12-04T10:52:49;2.38;82.57
77052;SHT30;65980;44.898;8.602;2023-12-04T10:55:56;2.45;82.43
77052;SHT30;65980;44.898;8.602;2023-12-04T10:59:03;2.36;83.11
77052;SHT30;65980;44.898;8.602;2023-12-04T11:02:21;2.14;83.27
77052;SHT30;65980;44.898;8.602;2023-12-04T11:05:45;2.10;83.60
77052;SHT30;65980;44.898;8.602;2023-12-04T11:08:53;2.17;83.94
77052;SHT30;65980;44.898;8.602;2023-12-04T11:12:06;2.13;83.90
77052;SHT30;65980;44.898;8.602;2023-12-04T11:15:45;2.40;83.44
77052;SHT30;65980;44.898;8.602;2023-12-04T11:18:55;2.68;83.03
77052;SHT30;65980;44.898;8.602;2023-12-04T11:22:00;2.85;81.98
77052;SHT30;65980;44.898;8.602;2023-12-04T11:25:09;2.75;81.83
77052;SHT30;65980;44.898;8.602;2023-12-04T11:28:14;2.61;82.66
77052;SHT30;65980;44.898;8.602;2023-12-04T11:31:20;2.69;82.42
77052;SHT30;65980;44.898;8.602;2023-12-04T11:34:25;2.55;82.96
77052;SHT30;65980;44.898;8.602;2023-12-04T11:37:30;2.48;83.85
77052;SHT30;65980;44.898;8.602;2023-12-04T11:40:37;2.31;84.07
77052;SHT30;65980;44.898;8.602;2023-12-04T11:43:42;2.31;84.73
77052;SHT30;65980;44.898;8.602;2023-12-04T11:47:03;2.30;85.39
77052;SHT30;65980;44.898;8.602;2023-12-04T11:50:07;2.61;84.77
77052;SHT30;65980;44.898;8.602;2023-12-04T11:57:32;2.86;83.00
77052;SHT30;65980;44.898;8.602;2023-12-04T12:00:41;2.89;83.75
77052;SHT30;65980;44.898;8.602;2023-12-04T12:03:50;2.96;83.52
77052;SHT30;65980;44.898;8.602;2023-12-04T12:06:58;3.07;83.84
77052;SHT30;65980;44.898;8.602;2023-12-04T12:15:32;3.45;81.79
77052;SHT30;65980;44.898;8.602;2023-12-04T12:19:10;3.40;82.07
77052;SHT30;65980;44.898;8.602;2023-12-04T12:22:21;3.26;82.52
77052;SHT30;65980;44.898;8.602;2023-12-04T12:25:26;3.44;81.20
77052;SHT30;65980;44.898;8.602;2023-12-04T12:28:40;3.58;80.27
77052;SHT30;65980;44.898;8.602;2023-12-04T12:31:47;3.58;80.36
77052;SHT30;65980;44.898;8.602;2023-12-04T12:34:56;3.54;81.29
77052;SHT30;65980;44.898;8.602;2023-12-04T12:38:01;3.65;81.51
77052;SHT30;65980;44.898;8.602;2023-12-04T12:41:08;3.30;82.33
77052;SHT30;65980;44.898;8.602;2023-12-04T12:44:15;3.47;82.98
77052;SHT30;65980;44.898;8.602;2023-12-04T12:47:20;3.57;82.92
77052;SHT30;65980;44.898;8.602;2023-12-04T12:50:26;3.48;82.57
77052;SHT30;65980;44.898;8.602;2023-12-04T12:53:34;3.45;82.58
77052;SHT30;65980;44.898;8.602;2023-12-04T12:56:39;3.50;82.52
77052;SHT30;65980;44.898;8.602;2023-12-04T12:59:44;3.61;81.65
77052;SHT30;65980;44.898;8.602;2023-12-04T13:06:35;3.28;81.25
77052;SHT30;65980;44.898;8.602;2023-12-04T13:09:40;3.14;82.29
77052;SHT30;65980;44.898;8.602;2023-12-04T13:12:45;3.17;82.24
77052;SHT30;65980;44.898;8.602;2023-12-04T13:15:49;3.00;82.90
77052;SHT30;65980;44.898;8.602;2023-12-04T13:18:55;3.14;83.04
77052;SHT30;65980;44.898;8.602;2023-12-04T13:21:59;3.21;82.30
77052;SHT30;65980;44.898;8.602;2023-12-04T13:25:03;3.13;83.04
77052;SHT30;65980;44.898;8.602;2023-12-04T13:28:11;3.12;82.84
77052;SHT30;65980;44.898;8.602;2023-12-04T13:31:18;3.12;83.16
77052;SHT30;65980;44.898;8.602;2023-12-04T13:34:24;3.20;83.33
77052;SHT30;65980;44.898;8.602;2023-12-04T13:37:30;3.13;83.00
77052;SHT30;65980;44.898;8.602;2023-12-04T13:40:35;2.79;83.35
77052;SHT30;65980;44.898;8.602;2023-12-04T13:43:41;2.76;83.83
77052;SHT30;65980;44.898;8.602;2023-12-04T13:46:54;2.81;85.08
77052;SHT30;65980;44.898;8.602;2023-12-04T13:49:57;2.86;85.47
77052;SHT30;65980;44.898;8.602;2023-12-04T13:53:02;3.02;84.44
77052;SHT30;65980;44.898;8.602;2023-12-04T13:56:12;2.82;84.38
77052;SHT30;65980;44.898;8.602;2023-12-04T13:59:17;2.74;85.47
77052;SHT30;65980;44.898;8.602;2023-12-04T14:02:23;2.88;84.23
77052;SHT30;65980;44.898;8.602;2023-12-04T14:05:28;2.95;84.40
77052;SHT30;65980;44.898;8.602;2023-12-04T14:08:33;2.99;84.42
77052;SHT30;65980;44.898;8.602;2023-12-04T14:11:37;2.99;84.43
77052;SHT30;65980;44.898;8.602;2023-12-04T14:14:40;2.78;84.22
77052;SHT30;65980;44.898;8.602;2023-12-04T14:17:45;2.85;85.46
77052;SHT30;65980;44.898;8.602;2023-12-04T14:20:51;3.04;84.74
77052;SHT30;65980;44.898;8.602;2023-12-04T14:23:56;3.07;83.94
77052;SHT30;65980;44.898;8.602;2023-12-04T14:27:01;3.16;84.16
77052;SHT30;65980;44.898;8.602;2023-12-04T14:30:11;3.16;83.60
77052;SHT30;65980;44.898;8.602;2023-12-04T14:33:15;2.99;84.03
77052;SHT30;65980;44.898;8.602;2023-12-04T14:36:19;3.14;84.27
77052;SHT30;65980;44.898;8.602;2023-12-04T14:39:24;3.19;83.81
77052;SHT30;65980;44.898;8.602;2023-12-04T14:42:29;3.00;84.55
77052;SHT30;65980;44.898;8.602;2023-12-04T14:45:34;3.19;84.18
77052;SHT30;65980;44.898;8.602;2023-12-04T14:48:40;3.28;83.81
77052;SHT30;65980;44.898;8.602;2023-12-04T14:51:44;3.40;83.45
77052;SHT30;65980;44.898;8.602;2023-12-04T14:54:52;3.41;83.45
77052;SHT30;65980;44.898;8.602;2023-12-04T14:58:16;3.47;83.64
77052;SHT30;65980;44.898;8.602;2023-12-04T15:01:39;3.55;83.15
77052;SHT30;65980;44.898;8.602;2023-12-04T15:04:47;3.50;83.26
77052;SHT30;65980;44.898;8.602;2023-12-04T15:08:11;3.44;83.48
77052;SHT30;65980;44.898;8.602;2023-12-04T15:11:29;3.44;83.58
77052;SHT30;65980;44.898;8.602;2023-12-04T15:14:42;3.37;83.82
77052;SHT30;65980;44.898;8.602;2023-12-04T15:18:04;3.54;83.51
77052;SHT30;65980;44.898;8.602;2023-12-04T15:21:27;3.27;83.89
77052;SHT30;65980;44.898;8.602;2023-12-04T15:24:33;3.34;83.64
77052;SHT30;65980;44.898;8.602;2023-12-04T15:27:37;3.42;83.42
77052;SHT30;65980;44.898;8.602;2023-12-04T15:30:42;3.44;83.66
77052;SHT30;65980;44.898;8.602;2023-12-04T15:33:46;3.50;82.89
77052;SHT30;65980;44.898;8.602;2023-12-04T15:36:51;3.45;82.81
77052;SHT30;65980;44.898;8.602;2023-12-04T15:39:56;3.47;83.12
77052;SHT30;65980;44.898;8.602;2023-12-04T15:43:01;3.40;82.93
77052;SHT30;65980;44.898;8.602;2023-12-04T15:46:05;3.34;83.14
77052;SHT30;65980;44.898;8.602;2023-12-04T15:49:10;3.35;83.30
77052;SHT30;65980;44.898;8.602;2023-12-04T15:52:15;3.32;83.33
77052;SHT30;65980;44.898;8.602;2023-12-04T15:55:23;3.31;83.38
77052;SHT30;65980;44.898;8.602;2023-12-04T15:58:29;3.16;84.57
77052;SHT30;65980;44.898;8.602;2023-12-04T16:01:36;3.30;83.78
77052;SHT30;65980;44.898;8.602;2023-12-04T16:04:41;3.32;84.42
77052;SHT30;65980;44.898;8.602;2023-12-04T16:07:46;3.24;84.54
77052;SHT30;65980;44.898;8.602;2023-12-04T16:10:52;3.00;85.59
77052;SHT30;65980;44.898;8.602;2023-12-04T16:13:57;3.06;85.13
77052;SHT30;65980;44.898;8.602;2023-12-04T16:17:01;3.09;85.09
77052;SHT30;65980;44.898;8.602;2023-12-04T16:20:06;3.03;84.77
77052;SHT30;65980;44.898;8.602;2023-12-04T16:23:36;3.04;85.18
77052;SHT30;65980;44.898;8.602;2023-12-04T16:26:40;2.88;85.16
77052;SHT30;65980;44.898;8.602;2023-12-04T16:29:48;2.66;86.81
77052;SHT30;65980;44.898;8.602;2023-12-04T16:32:52;2.57;87.38
77052;SHT30;65980;44.898;8.602;2023-12-04T16:35:57;2.51;87.58
77052;SHT30;65980;44.898;8.602;2023-12-04T16:39:01;2.27;88.95
77052;SHT30;65980;44.898;8.602;2023-12-04T16:42:09;2.23;89.34
77052;SHT30;65980;44.898;8.602;2023-12-04T16:45:14;2.20;89.41
77052;SHT30;65980;44.898;8.602;2023-12-04T16:48:18;2.24;89.17
77052;SHT30;65980;44.898;8.602;2023-12-04T16:51:22;2.16;89.21
77052;SHT30;65980;44.898;8.602;2023-12-04T16:54:27;2.34;89.13
77052;SHT30;65980;44.898;8.602;2023-12-04T16:57:31;2.23;88.95
77052;SHT30;65980;44.898;8.602;2023-12-04T17:00:35;2.41;88.46
77052;SHT30;65980;44.898;8.602;2023-12-04T17:03:40;2.47;88.81
77052;SHT30;65980;44.898;8.602;2023-12-04T17:06:44;2.65;87.56
77052;SHT30;65980;44.898;8.602;2023-12-04T17:09:48;2.62;87.35
77052;SHT30;65980;44.898;8.602;2023-12-04T17:12:53;2.74;87.39
77052;SHT30;65980;44.898;8.602;2023-12-04T17:15:58;2.71;86.78
77052;SHT30;65980;44.898;8.602;2023-12-04T17:19:47;2.58;87.23
77052;SHT30;65980;44.898;8.602;2023-12-04T17:22:51;2.36;88.12
77052;SHT30;65980;44.898;8.602;2023-12-04T17:25:55;2.31;88.31
77052;SHT30;65980;44.898;8.602;2023-12-04T17:29:00;2.42;87.97
77052;SHT30;65980;44.898;8.602;2023-12-04T17:32:04;2.54;87.66
77052;SHT30;65980;44.898;8.602;2023-12-04T17:35:33;2.57;87.39
77052;SHT30;65980;44.898;8.602;2023-12-04T17:38:38;2.27;88.61
77052;SHT30;65980;44.898;8.602;2023-12-04T17:41:41;2.34;88.63
77052;SHT30;65980;44.898;8.602;2023-12-04T17:44:45;2.27;88.55
77052;SHT30;65980;44.898;8.602;2023-12-04T17:47:53;2.06;89.71
77052;SHT30;65980;44.898;8.602;2023-12-04T17:50:57;1.89;90.72
77052;SHT30;65980;44.898;8.602;2023-12-04T17:54:02;1.86;91.17
77052;SHT30;65980;44.898;8.602;2023-12-04T17:57:06;1.87;91.15
77052;SHT30;65980;44.898;8.602;2023-12-04T18:00:12;1.82;91.61
77052;SHT30;65980;44.898;8.602;2023-12-04T18:03:20;1.75;91.90
77052;SHT30;65980;44.898;8.602;2023-12-04T18:06:27;1.82;91.87
77052;SHT30;65980;44.898;8.602;2023-12-04T18:09:32;1.79;91.92
77052;SHT30;65980;44.898;8.602;2023-12-04T18:12:41;1.95;91.68
77052;SHT30;65980;44.898;8.602;2023-12-04T18:15:45;2.13;91.30
77052;SHT30;65980;44.898;8.602;2023-12-04T18:18:50;2.21;90.81
77052;SHT30;65980;44.898;8.602;2023-12-04T18:21:55;2.40;90.20
77052;SHT30;65980;44.898;8.602;2023-12-04T18:24:59;2.41;89.41
77052;SHT30;65980;44.898;8.602;2023-12-04T18:28:07;2.55;89.42
77052;SHT30;65980;44.898;8.602;2023-12-04T18:31:14;2.61;88.41
77052;SHT30;65980;44.898;8.602;2023-12-04T18:34:22;2.65;88.22
77052;SHT30;65980;44.898;8.602;2023-12-04T18:37:32;2.78;88.12
77052;SHT30;65980;44.898;8.602;2023-12-04T18:40:40;2.59;88.31
77052;SHT30;65980;44.898;8.602;2023-12-04T18:43:45;2.82;87.69
77052;SHT30;65980;44.898;8.602;2023-12-04T18:46:54;2.95;86.93
77052;SHT30;65980;44.898;8.602;2023-12-04T18:50:01;2.92;86.78
77052;SHT30;65980;44.898;8.602;2023-12-04T18:53:05;2.97;86.28
77052;SHT30;65980;44.898;8.602;2023-12-04T18:56:10;2.40;88.11
77052;SHT30;65980;44.898;8.602;2023-12-04T18:59:14;2.23;89.46
77052;SHT30;65980;44.898;8.602;2023-12-04T19:02:18;2.07;90.34
77052;SHT30;65980;44.898;8.602;2023-12-04T19:05:22;1.98;90.84
77052;SHT30;65980;44.898;8.602;2023-12-04T19:08:29;1.82;90.93
77052;SHT30;65980;44.898;8.602;2023-12-04T19:11:35;1.91;91.05
77052;SHT30;65980;44.898;8.602;2023-12-04T19:14:41;2.13;90.62
77052;SHT30;65980;44.898;8.602;2023-12-04T19:17:47;2.12;89.52
77052;SHT30;65980;44.898;8.602;2023-12-04T19:20:51;2.09;89.50
77052;SHT30;65980;44.898;8.602;2023-12-04T19:23:55;2.19;89.45
77052;SHT30;65980;44.898;8.602;2023-12-04T19:26:59;2.07;89.25
77052;SHT30;65980;44.898;8.602;2023-12-04T19:30:04;1.87;90.21
77052;SHT30;65980;44.898;8.602;2023-12-04T19:33:09;2.01;89.96
77052;SHT30;65980;44.898;8.602;2023-12-04T19:36:17;1.95;90.04
77052;SHT30;65980;44.898;8.602;2023-12-04T19:39:21;1.85;90.03
77052;SHT30;65980;44.898;8.602;2023-12-04T19:42:25;1.83;90.29
77052;SHT30;65980;44.898;8.602;2023-12-04T19:45:31;1.69;90.76
77052;SHT30;65980;44.898;8.602;2023-12-04T19:48:36;1.76;90.85
77052;SHT30;65980;44.898;8.602;2023-12-04T19:51:42;1.69;91.01
77052;SHT30;65980;44.898;8.602;2023-12-04T19:54:48;1.62;91.47
77052;SHT30;65980;44.898;8.602;2023-12-04T19:57:53;1.78;91.67
77052;SHT30;65980;44.898;8.602;2023-12-04T20:00:57;1.79;90.98
77052;SHT30;65980;44.898;8.602;2023-12-04T20:04:01;1.68;91.32
77052;SHT30;65980;44.898;8.602;2023-12-04T20:07:06;1.87;90.72
77052;SHT30;65980;44.898;8.602;2023-12-04T20:10:11;1.93;90.55
77052;SHT30;65980;44.898;8.602;2023-12-04T20:13:15;2.13;90.05